Time;durP1;ratioP1;P1;durP2;ratioP2;P2;SDS_P1;SDS_P2;PMS_P1;PMS_P2;Temp;Humidity;BMP_temperature;BMP_pressure;BME280_temperature;BME280_humidity;BME280_pressure;Samples;Min_cycle;Max_cycle;Signal;HPM_P1;HPM_P2
2024/01/13 00:02:19;;;;;;;3.50;1.40;;;;;;;;;;5041239;28;20156;-58
2024/01/13 00:04:45;;;;;;;3.42;1.25;;;;;;;;;;5042997;28;20120;-57
2024/01/13 00:07:11;;;;;;;1.80;0.90;;;;;;;;;;5044109;28;20132;-57
2024/01/13 00:09:37;;;;;;;2.25;0.95;;;;;;;;;;5032494;28;20140;-57
2024/01/13 00:12:04;;;;;;;2.47;0.80;;;;;;;;;;5037632;28;20447;-58
2024/01/13 00:14:30;;;;;;;2.75;1.20;;;;;;;;;;5045883;28;20041;-58
2024/01/13 00:16:56;;;;;;;1.27;0.70;;;;;;;;;;5043414;28;20062;-58
2024/01/13 00:19:23;;;;;;;1.85;1.30;;;;;;;;;;5042915;28;20048;-58
2024/01/13 00:21:49;;;;;;;5.22;2.20;;;;;;;;;;5033248;28;20076;-58
2024/01/13 00:24:15;;;;;;;1.88;1.48;;;;;;;;;;5026368;28;20095;-58
2024/01/13 00:26:41;;;;;;;3.13;1.15;;;;;;;;;;5039597;28;20045;-58
2024/01/13 00:29:08;;;;;;;2.58;1.00;;;;;;;;;;5044658;28;20767;-57
2024/01/13 00:31:34;;;;;;;1.55;1.45;;;;;;;;;;5043209;28;20557;-58
2024/01/13 00:34:03;;;;;;;1.65;0.80;;;;;;;;;;5041990;28;20052;-59
2024/01/13 00:36:29;;;;;;;1.40;0.93;;;;;;;;;;5038907;28;20076;-58
2024/01/13 00:38:55;;;;;;;1.27;0.70;;;;;;;;;;5031597;28;20041;-58
2024/01/13 00:41:21;;;;;;;0.88;0.60;;;;;;;;;;5033377;28;20135;-58
2024/01/13 00:43:47;;;;;;;1.00;0.60;;;;;;;;;;5033260;28;20064;-58
2024/01/13 00:46:13;;;;;;;0.90;0.90;;;;;;;;;;5035631;28;20372;-58
2024/01/13 00:48:39;;;;;;;1.23;0.75;;;;;;;;;;5034555;28;20054;-58
2024/01/13 00:51:09;;;;;;;0.93;0.50;;;;;;;;;;5040588;28;20044;-58
2024/01/13 00:53:35;;;;;;;1.35;0.85;;;;;;;;;;5032266;28;20044;-58
2024/01/13 00:56:01;;;;;;;0.80;0.70;;;;;;;;;;5037219;28;20041;-58
2024/01/13 00:58:27;;;;;;;0.50;0.50;;;;;;;;;;5034234;28;20037;-58
2024/01/13 01:00:53;;;;;;;1.17;0.57;;;;;;;;;;5036155;28;20120;-57
2024/01/13 01:03:19;;;;;;;2.28;0.57;;;;;;;;;;5037007;28;21017;-58
2024/01/13 01:05:45;;;;;;;1.92;0.70;;;;;;;;;;5036954;28;20037;-58
2024/01/13 01:08:11;;;;;;;1.63;1.10;;;;;;;;;;5036395;28;20040;-58
2024/01/13 01:10:37;;;;;;;1.58;0.95;;;;;;;;;;5032784;28;20049;-58
2024/01/13 01:13:03;;;;;;;1.55;0.85;;;;;;;;;;5036517;28;20033;-57
2024/01/13 01:15:29;;;;;;;7.05;1.05;;;;;;;;;;5038969;28;20055;-58
2024/01/13 01:17:55;;;;;;;1.70;1.10;;;;;;;;;;5037380;28;20033;-58
2024/01/13 01:20:21;;;;;;;1.98;0.82;;;;;;;;;;5036549;28;20522;-58
2024/01/13 01:22:47;;;;;;;1.17;0.90;;;;;;;;;;5034124;28;20044;-58
2024/01/13 01:25:13;;;;;;;1.48;1.10;;;;;;;;;;5033872;28;20104;-58
2024/01/13 01:27:39;;;;;;;1.15;0.98;;;;;;;;;;5034367;28;20862;-58
2024/01/13 01:30:05;;;;;;;1.40;0.73;;;;;;;;;;5037950;28;20041;-58
2024/01/13 01:32:31;;;;;;;1.02;0.90;;;;;;;;;;5037731;28;20087;-58
2024/01/13 01:34:57;;;;;;;0.85;0.70;;;;;;;;;;5038832;28;20041;-59
2024/01/13 01:37:23;;;;;;;1.17;0.70;;;;;;;;;;5031182;28;20128;-58
2024/01/13 01:39:49;;;;;;;1.77;1.05;;;;;;;;;;5033449;28;20110;-57
2024/01/13 01:42:15;;;;;;;1.33;0.93;;;;;;;;;;5033668;28;20068;-58
2024/01/13 01:44:41;;;;;;;0.70;0.70;;;;;;;;;;5038984;28;20049;-58
2024/01/13 01:47:09;;;;;;;1.00;0.85;;;;;;;;;;5036081;28;20040;-58
2024/01/13 01:49:35;;;;;;;1.55;1.13;;;;;;;;;;5034305;28;20081;-58
2024/01/13 01:52:01;;;;;;;1.80;0.98;;;;;;;;;;5039478;28;20489;-58
2024/01/13 01:54:28;;;;;;;1.63;0.95;;;;;;;;;;5035417;28;20042;-58
2024/01/13 01:56:54;;;;;;;1.60;1.25;;;;;;;;;;5039590;28;20033;-58
2024/01/13 01:59:20;;;;;;;0.95;0.80;;;;;;;;;;5021072;28;20045;-59
2024/01/13 02:01:47;;;;;;;1.27;0.75;;;;;;;;;;5032514;28;20597;-58
2024/01/13 02:04:14;;;;;;;1.35;1.23;;;;;;;;;;5037340;28;20091;-58
2024/01/13 02:06:40;;;;;;;0.88;0.85;;;;;;;;;;5033609;28;20041;-58
2024/01/13 02:09:06;;;;;;;2.50;1.00;;;;;;;;;;5036031;28;20052;-58
2024/01/13 02:11:32;;;;;;;0.82;0.75;;;;;;;;;;5035817;28;20061;-58
2024/01/13 02:13:58;;;;;;;1.08;0.57;;;;;;;;;;5034831;28;20064;-57
2024/01/13 02:16:24;;;;;;;2.13;1.08;;;;;;;;;;5033965;28;20044;-58
2024/01/13 02:18:50;;;;;;;2.88;1.05;;;;;;;;;;5036019;28;20082;-58
2024/01/13 02:21:16;;;;;;;2.33;0.90;;;;;;;;;;5038687;28;20036;-58
2024/01/13 02:23:42;;;;;;;1.52;0.98;;;;;;;;;;5031635;28;20072;-58
2024/01/13 02:26:08;;;;;;;0.82;0.70;;;;;;;;;;5031980;28;20207;-58
2024/01/13 02:28:34;;;;;;;0.50;0.50;;;;;;;;;;5036986;28;20045;-59
2024/01/13 02:31:00;;;;;;;1.08;0.52;;;;;;;;;;5038169;28;20037;-58
2024/01/13 02:33:26;;;;;;;0.63;0.50;;;;;;;;;;5037865;28;20067;-57
2024/01/13 02:35:52;;;;;;;0.95;0.68;;;;;;;;;;5035403;28;20069;-58
2024/01/13 02:38:18;;;;;;;1.95;0.88;;;;;;;;;;5037043;28;20765;-58
2024/01/13 02:40:44;;;;;;;1.67;0.60;;;;;;;;;;5038746;28;20045;-58
2024/01/13 02:43:10;;;;;;;1.35;0.80;;;;;;;;;;5034950;28;20037;-58
2024/01/13 02:45:36;;;;;;;1.52;0.80;;;;;;;;;;5031507;28;20033;-58
2024/01/13 02:48:08;;;;;;;1.00;0.80;;;;;;;;;;5035698;28;20059;-58
2024/01/13 02:50:34;;;;;;;0.73;0.70;;;;;;;;;;5034859;28;20041;-58
2024/01/13 02:53:00;;;;;;;0.75;0.60;;;;;;;;;;5037344;28;20577;-58
2024/01/13 02:55:26;;;;;;;2.08;0.32;;;;;;;;;;5019502;28;20048;-58
2024/01/13 02:57:52;;;;;;;0.45;0.40;;;;;;;;;;5034403;28;20168;-58
2024/01/13 03:00:18;;;;;;;1.42;0.73;;;;;;;;;;5030335;28;20427;-58
2024/01/13 03:02:45;;;;;;;0.40;0.40;;;;;;;;;;5036623;28;20055;-58
2024/01/13 03:05:11;;;;;;;0.20;0.20;;;;;;;;;;5033950;28;20084;-58
2024/01/13 03:07:37;;;;;;;0.52;0.30;;;;;;;;;;5032770;28;20066;-58
2024/01/13 03:10:03;;;;;;;0.80;0.40;;;;;;;;;;5037152;28;20071;-58
2024/01/13 03:12:29;;;;;;;1.88;0.45;;;;;;;;;;5031573;28;20041;-58
2024/01/13 03:14:56;;;;;;;0.50;0.50;;;;;;;;;;5033606;28;20594;-58
2024/01/13 03:17:22;;;;;;;0.85;0.30;;;;;;;;;;5032798;28;20044;-58
2024/01/13 03:19:48;;;;;;;0.95;0.47;;;;;;;;;;5034035;28;20032;-58
2024/01/13 03:22:14;;;;;;;0.85;0.43;;;;;;;;;;5031149;28;20123;-59
2024/01/13 03:24:40;;;;;;;0.40;0.40;;;;;;;;;;5035023;28;20088;-58
2024/01/13 03:27:06;;;;;;;1.00;0.55;;;;;;;;;;5032471;28;20034;-58
2024/01/13 03:29:32;;;;;;;2.05;0.50;;;;;;;;;;5032167;28;20041;-58
2024/01/13 03:31:58;;;;;;;0.55;0.40;;;;;;;;;;5033473;28;20037;-58
2024/01/13 03:34:24;;;;;;;0.52;0.47;;;;;;;;;;5033898;28;20229;-59
2024/01/13 03:36:50;;;;;;;0.30;0.30;;;;;;;;;;5036055;28;20127;-58
2024/01/13 03:39:16;;;;;;;0.60;0.20;;;;;;;;;;5031340;28;20049;-58
2024/01/13 03:41:42;;;;;;;1.13;0.45;;;;;;;;;;5033116;28;20130;-59
2024/01/13 03:44:08;;;;;;;0.80;0.43;;;;;;;;;;5034499;28;20588;-58
2024/01/13 03:46:34;;;;;;;0.43;0.40;;;;;;;;;;5036555;28;20045;-58
2024/01/13 03:49:00;;;;;;;0.55;0.50;;;;;;;;;;5037276;28;20049;-59
2024/01/13 03:51:26;;;;;;;1.52;0.63;;;;;;;;;;5034586;28;20076;-58
2024/01/13 03:53:52;;;;;;;0.90;0.60;;;;;;;;;;5037842;28;20149;-58
2024/01/13 03:56:18;;;;;;;0.30;0.30;;;;;;;;;;5033647;28;20072;-58
2024/01/13 03:58:44;;;;;;;0.77;0.40;;;;;;;;;;5037859;28;20038;-58
2024/01/13 04:01:10;;;;;;;0.63;0.40;;;;;;;;;;5039794;28;20052;-59
2024/01/13 04:03:36;;;;;;;0.60;0.35;;;;;;;;;;5038238;28;20067;-58
2024/01/13 04:06:03;;;;;;;1.02;0.50;;;;;;;;;;5039116;28;20071;-59
2024/01/13 04:08:29;;;;;;;0.95;0.60;;;;;;;;;;5039054;28;20045;-58
2024/01/13 04:10:55;;;;;;;1.05;0.40;;;;;;;;;;5039271;28;20056;-58
2024/01/13 04:13:21;;;;;;;1.05;0.60;;;;;;;;;;5043288;28;20033;-59
2024/01/13 04:15:47;;;;;;;2.08;0.47;;;;;;;;;;5044877;28;20072;-58
2024/01/13 04:18:13;;;;;;;1.20;0.55;;;;;;;;;;5037387;28;20035;-59
2024/01/13 04:20:39;;;;;;;0.70;0.70;;;;;;;;;;5045356;28;20454;-59
2024/01/13 04:23:05;;;;;;;0.43;0.43;;;;;;;;;;5039528;28;20042;-58
2024/01/13 04:25:31;;;;;;;1.27;0.80;;;;;;;;;;5046196;28;20037;-58
2024/01/13 04:28:00;;;;;;;1.60;0.70;;;;;;;;;;5044707;28;20037;-59
2024/01/13 04:30:27;;;;;;;1.35;0.90;;;;;;;;;;5042798;28;20045;-58
2024/01/13 04:32:53;;;;;;;0.88;0.70;;;;;;;;;;5041125;28;20095;-58
2024/01/13 04:35:19;;;;;;;1.58;0.93;;;;;;;;;;5043130;28;20128;-58
2024/01/13 04:37:45;;;;;;;0.85;0.82;;;;;;;;;;5042779;28;20124;-58
2024/01/13 04:40:11;;;;;;;0.70;0.70;;;;;;;;;;5046725;28;20707;-58
2024/01/13 04:42:37;;;;;;;1.00;0.63;;;;;;;;;;5046422;28;20128;-58
2024/01/13 04:45:03;;;;;;;1.75;0.73;;;;;;;;;;5048913;28;20048;-58
2024/01/13 04:47:29;;;;;;;0.60;0.50;;;;;;;;;;5043093;28;20045;-58
2024/01/13 04:49:55;;;;;;;0.80;0.50;;;;;;;;;;5043193;28;20044;-58
2024/01/13 04:52:21;;;;;;;0.63;0.60;;;;;;;;;;5042546;28;20046;-58
2024/01/13 04:54:47;;;;;;;0.52;0.52;;;;;;;;;;5049248;28;20041;-58
2024/01/13 04:57:13;;;;;;;0.70;0.60;;;;;;;;;;5045881;28;20064;-58
2024/01/13 04:59:39;;;;;;;1.67;0.43;;;;;;;;;;5045142;28;20041;-58
2024/01/13 05:02:05;;;;;;;0.70;0.60;;;;;;;;;;5042040;28;20040;-58
2024/01/13 05:04:31;;;;;;;0.85;0.70;;;;;;;;;;5043083;28;20048;-58
2024/01/13 05:06:57;;;;;;;0.85;0.70;;;;;;;;;;5042073;28;20379;-58
2024/01/13 05:09:23;;;;;;;0.70;0.70;;;;;;;;;;5048322;28;20056;-58
2024/01/13 05:11:49;;;;;;;2.47;0.75;;;;;;;;;;5047220;28;20037;-57
2024/01/13 05:14:16;;;;;;;1.83;0.82;;;;;;;;;;5048520;28;20040;-58
2024/01/13 05:16:42;;;;;;;1.55;0.93;;;;;;;;;;5030286;28;20052;-57
2024/01/13 05:19:09;;;;;;;1.58;1.02;;;;;;;;;;5047656;28;20053;-58
2024/01/13 05:21:35;;;;;;;2.20;0.82;;;;;;;;;;5042957;28;20207;-58
2024/01/13 05:24:01;;;;;;;3.10;0.82;;;;;;;;;;5039927;28;20076;-57
2024/01/13 05:26:27;;;;;;;2.28;0.90;;;;;;;;;;5036441;28;20047;-58
2024/01/13 05:28:53;;;;;;;0.82;0.80;;;;;;;;;;5036452;28;20114;-58
2024/01/13 05:31:19;;;;;;;1.63;1.05;;;;;;;;;;5035954;28;20430;-58
2024/01/13 05:33:45;;;;;;;1.58;1.10;;;;;;;;;;5035013;28;20406;-58
2024/01/13 05:36:11;;;;;;;0.90;0.90;;;;;;;;;;5033396;28;20041;-58
2024/01/13 05:38:37;;;;;;;1.15;0.73;;;;;;;;;;5036159;28;20072;-57
2024/01/13 05:41:03;;;;;;;1.30;0.90;;;;;;;;;;5035090;28;20045;-58
2024/01/13 05:43:29;;;;;;;1.05;0.70;;;;;;;;;;5035624;28;20053;-58
2024/01/13 05:45:55;;;;;;;0.68;0.65;;;;;;;;;;5034189;28;20045;-58
2024/01/13 05:48:21;;;;;;;1.05;0.57;;;;;;;;;;5033963;28;20037;-58
2024/01/13 05:50:47;;;;;;;1.05;0.57;;;;;;;;;;5037334;28;20055;-58
2024/01/13 05:53:13;;;;;;;0.60;0.50;;;;;;;;;;5033341;28;20037;-58
2024/01/13 05:55:39;;;;;;;1.42;0.85;;;;;;;;;;5034743;28;20589;-58
2024/01/13 05:58:06;;;;;;;1.17;1.08;;;;;;;;;;5034242;28;20817;-58
2024/01/13 06:00:32;;;;;;;0.98;0.75;;;;;;;;;;5033944;28;20045;-58
2024/01/13 06:02:58;;;;;;;0.70;0.63;;;;;;;;;;5036733;28;20052;-58
2024/01/13 06:05:24;;;;;;;2.08;1.10;;;;;;;;;;5033242;28;20048;-58
2024/01/13 06:07:50;;;;;;;1.20;0.63;;;;;;;;;;5036095;28;20059;-58
2024/01/13 06:10:19;;;;;;;1.13;0.80;;;;;;;;;;5040517;28;20056;-58
2024/01/13 06:12:45;;;;;;;0.85;0.50;;;;;;;;;;5038077;28;20128;-58
2024/01/13 06:15:11;;;;;;;1.17;0.70;;;;;;;;;;5036600;28;20045;-58
2024/01/13 06:17:38;;;;;;;1.70;0.60;;;;;;;;;;5038527;28;20076;-58
2024/01/13 06:20:04;;;;;;;2.30;0.70;;;;;;;;;;5038810;28;20037;-57
2024/01/13 06:22:30;;;;;;;1.70;1.00;;;;;;;;;;5033470;28;20451;-58
2024/01/13 06:24:56;;;;;;;1.08;1.00;;;;;;;;;;5036088;28;20503;-57
2024/01/13 06:27:22;;;;;;;1.00;0.82;;;;;;;;;;5034391;28;20041;-58
2024/01/13 06:29:48;;;;;;;0.85;0.60;;;;;;;;;;5037351;28;20107;-58
2024/01/13 06:32:14;;;;;;;1.52;0.52;;;;;;;;;;5033544;28;20037;-58
2024/01/13 06:34:40;;;;;;;0.90;0.70;;;;;;;;;;5033702;28;20041;-59
2024/01/13 06:37:06;;;;;;;1.42;1.25;;;;;;;;;;5036102;28;20067;-58
2024/01/13 06:39:32;;;;;;;1.10;0.57;;;;;;;;;;5033603;28;20064;-58
2024/01/13 06:41:58;;;;;;;1.45;0.70;;;;;;;;;;5034006;28;20041;-58
2024/01/13 06:44:24;;;;;;;1.05;0.40;;;;;;;;;;5034919;28;20045;-58
2024/01/13 06:46:50;;;;;;;0.50;0.30;;;;;;;;;;5034789;28;21006;-58
2024/01/13 06:49:16;;;;;;;0.30;0.30;;;;;;;;;;5035030;28;20060;-58
2024/01/13 06:51:42;;;;;;;0.70;0.60;;;;;;;;;;5031241;28;20040;-58
2024/01/13 06:54:08;;;;;;;0.22;0.22;;;;;;;;;;5032296;28;20037;-58
2024/01/13 06:56:36;;;;;;;0.95;0.30;;;;;;;;;;5035658;28;20535;-57
2024/01/13 06:59:02;;;;;;;0.60;0.25;;;;;;;;;;5031638;28;20033;-58
2024/01/13 07:01:28;;;;;;;1.13;0.35;;;;;;;;;;5034819;28;20052;-57
2024/01/13 07:03:54;;;;;;;0.52;0.52;;;;;;;;;;5036301;28;20063;-58
2024/01/13 07:06:20;;;;;;;0.50;0.40;;;;;;;;;;5038449;28;20168;-58
2024/01/13 07:08:46;;;;;;;0.65;0.60;;;;;;;;;;5034862;28;20055;-58
2024/01/13 07:11:13;;;;;;;2.28;0.40;;;;;;;;;;5036755;28;20387;-58
2024/01/13 07:13:41;;;;;;;0.88;0.50;;;;;;;;;;5030613;28;20044;-58
2024/01/13 07:16:07;;;;;;;1.88;0.98;;;;;;;;;;5033542;28;20040;-58
2024/01/13 07:18:33;;;;;;;3.65;0.95;;;;;;;;;;5033650;28;20766;-58
2024/01/13 07:20:59;;;;;;;2.45;0.80;;;;;;;;;;5037011;28;20050;-58
2024/01/13 07:23:25;;;;;;;0.50;0.50;;;;;;;;;;5035494;28;20040;-58
2024/01/13 07:25:51;;;;;;;1.90;0.50;;;;;;;;;;5034922;28;20129;-60
2024/01/13 07:28:17;;;;;;;0.95;0.75;;;;;;;;;;5036719;28;20441;-58
2024/01/13 07:30:42;;;;;;;2.15;1.20;;;;;;;;;;5032747;28;20036;-58
2024/01/13 07:33:08;;;;;;;1.23;1.13;;;;;;;;;;5034634;28;20593;-58
2024/01/13 07:35:36;;;;;;;2.90;2.60;;;;;;;;;;5033557;28;20095;-58
2024/01/13 07:38:02;;;;;;;2.28;2.13;;;;;;;;;;5033019;28;20075;-58
2024/01/13 07:40:28;;;;;;;3.67;2.75;;;;;;;;;;5031590;28;20099;-58
2024/01/13 07:42:54;;;;;;;4.93;3.22;;;;;;;;;;5030665;28;20034;-58
2024/01/13 07:45:20;;;;;;;6.10;4.00;;;;;;;;;;5034606;28;20564;-58
2024/01/13 07:47:46;;;;;;;8.75;6.28;;;;;;;;;;5033702;28;20495;-58
2024/01/13 07:50:12;;;;;;;7.60;5.18;;;;;;;;;;5035943;28;20425;-58
2024/01/13 07:52:38;;;;;;;5.60;4.95;;;;;;;;;;5034544;28;20116;-58
2024/01/13 07:55:04;;;;;;;6.15;4.45;;;;;;;;;;5031089;28;20045;-58
2024/01/13 07:57:30;;;;;;;5.03;4.50;;;;;;;;;;5032399;28;20050;-58
2024/01/13 07:59:56;;;;;;;6.75;5.75;;;;;;;;;;5032184;28;20777;-58
2024/01/13 08:02:22;;;;;;;6.20;4.68;;;;;;;;;;5035720;28;20103;-58
2024/01/13 08:04:48;;;;;;;8.13;6.65;;;;;;;;;;5027837;28;20482;-57
2024/01/13 08:07:14;;;;;;;13.85;8.27;;;;;;;;;;5032732;28;20080;-58
2024/01/13 08:09:40;;;;;;;14.07;10.20;;;;;;;;;;5033684;28;20053;-58
2024/01/13 08:12:07;;;;;;;16.67;11.18;;;;;;;;;;5034328;28;20099;-58
2024/01/13 08:14:33;;;;;;;16.73;12.18;;;;;;;;;;5034590;28;20645;-58
2024/01/13 08:16:59;;;;;;;21.58;14.18;;;;;;;;;;5035838;28;20048;-58
2024/01/13 08:19:25;;;;;;;22.90;15.10;;;;;;;;;;5037061;28;20048;-58
2024/01/13 08:21:51;;;;;;;25.95;16.20;;;;;;;;;;5032728;28;20041;-58
2024/01/13 08:24:17;;;;;;;23.58;16.77;;;;;;;;;;5036200;28;20040;-58
2024/01/13 08:26:43;;;;;;;26.35;17.00;;;;;;;;;;5036782;28;20129;-58
2024/01/13 08:29:09;;;;;;;24.17;16.77;;;;;;;;;;5033831;28;20533;-58
2024/01/13 08:31:35;;;;;;;35.63;20.73;;;;;;;;;;5029897;28;20038;-57
2024/01/13 08:34:01;;;;;;;37.78;23.23;;;;;;;;;;5034764;28;20044;-58
2024/01/13 08:36:27;;;;;;;38.20;23.30;;;;;;;;;;5029738;28;20059;-58
2024/01/13 08:38:53;;;;;;;37.78;24.48;;;;;;;;;;5025653;28;20064;-58
2024/01/13 08:41:19;;;;;;;34.38;22.50;;;;;;;;;;5026905;28;20329;-59
2024/01/13 08:43:45;;;;;;;35.80;23.58;;;;;;;;;;5025440;28;20461;-58
2024/01/13 08:46:13;;;;;;;35.50;23.70;;;;;;;;;;5030412;28;20071;-58
2024/01/13 08:48:39;;;;;;;38.42;24.77;;;;;;;;;;5028399;28;20491;-59
2024/01/13 08:51:05;;;;;;;40.72;24.67;;;;;;;;;;5028030;28;21635;-57
2024/01/13 08:53:33;;;;;;;44.78;29.17;;;;;;;;;;5031080;28;20036;-58
2024/01/13 08:55:59;;;;;;;41.72;27.15;;;;;;;;;;5011009;28;20052;-59
2024/01/13 08:58:25;;;;;;;44.13;28.33;;;;;;;;;;5034054;28;20037;-58
2024/01/13 09:00:54;;;;;;;34.85;23.35;;;;;;;;;;5044635;28;20068;-58
2024/01/13 09:03:21;;;;;;;31.10;22.50;;;;;;;;;;5043355;28;20138;-58
2024/01/13 09:05:47;;;;;;;30.58;21.55;;;;;;;;;;5041904;28;20041;-58
2024/01/13 09:08:13;;;;;;;34.90;23.90;;;;;;;;;;5044087;28;20049;-58
2024/01/13 09:10:39;;;;;;;42.33;24.98;;;;;;;;;;5038779;28;20052;-56
2024/01/13 09:13:05;;;;;;;37.22;24.25;;;;;;;;;;5036170;28;20041;-59
2024/01/13 09:15:31;;;;;;;36.85;24.42;;;;;;;;;;5043831;28;20041;-59
2024/01/13 09:17:57;;;;;;;34.47;23.48;;;;;;;;;;5042298;28;20548;-58
2024/01/13 09:20:26;;;;;;;30.20;20.27;;;;;;;;;;5043597;28;20611;-59
2024/01/13 09:22:52;;;;;;;29.67;19.95;;;;;;;;;;5046841;28;20037;-58
2024/01/13 09:25:18;;;;;;;29.67;19.70;;;;;;;;;;5046308;28;20033;-59
2024/01/13 09:27:44;;;;;;;35.63;23.30;;;;;;;;;;5042868;28;20048;-58
2024/01/13 09:30:11;;;;;;;39.70;26.63;;;;;;;;;;5044871;28;20136;-59
2024/01/13 09:32:37;;;;;;;39.22;25.13;;;;;;;;;;5044962;28;20044;-58
2024/01/13 09:35:03;;;;;;;36.47;25.35;;;;;;;;;;5045212;28;20398;-58
2024/01/13 09:37:29;;;;;;;41.42;24.52;;;;;;;;;;5046854;28;20049;-58
2024/01/13 09:39:56;;;;;;;36.95;23.95;;;;;;;;;;5032982;28;20041;-58
2024/01/13 09:42:30;;;;;;;37.75;22.20;;;;;;;;;;5033654;28;20126;-58
2024/01/13 09:44:56;;;;;;;32.88;21.50;;;;;;;;;;5032545;28;20045;-57
2024/01/13 09:47:22;;;;;;;32.53;21.10;;;;;;;;;;5029470;28;20375;-58
2024/01/13 09:49:51;;;;;;;29.40;21.00;;;;;;;;;;5032473;28;20398;-59
2024/01/13 09:52:17;;;;;;;27.02;20.05;;;;;;;;;;5035819;28;20087;-58
2024/01/13 09:54:47;;;;;;;30.55;20.08;;;;;;;;;;5031938;28;20037;-59
2024/01/13 09:57:13;;;;;;;27.45;19.38;;;;;;;;;;5035495;28;20624;-59
2024/01/13 09:59:41;;;;;;;25.38;18.17;;;;;;;;;;5039203;28;20084;-59
2024/01/13 10:02:11;;;;;;;29.30;20.90;;;;;;;;;;5038519;28;20557;-58
2024/01/13 10:04:37;;;;;;;31.95;19.63;;;;;;;;;;5038517;28;20049;-59
2024/01/13 10:07:04;;;;;;;29.65;20.83;;;;;;;;;;5033191;28;20140;-59
2024/01/13 10:09:30;;;;;;;33.83;21.70;;;;;;;;;;5037189;28;20060;-58
2024/01/13 10:11:56;;;;;;;33.83;20.67;;;;;;;;;;5035951;28;20055;-59
2024/01/13 10:14:23;;;;;;;32.80;20.25;;;;;;;;;;5036035;28;20048;-59
2024/01/13 10:16:49;;;;;;;26.25;19.60;;;;;;;;;;5038585;28;20399;-59
2024/01/13 10:19:15;;;;;;;32.75;21.33;;;;;;;;;;5035936;28;20102;-58
2024/01/13 10:21:42;;;;;;;32.85;23.00;;;;;;;;;;5038961;28;20034;-59
2024/01/13 10:24:08;;;;;;;32.08;20.92;;;;;;;;;;5038849;28;20167;-58
2024/01/13 10:26:35;;;;;;;27.20;19.45;;;;;;;;;;5036522;28;20128;-58
2024/01/13 10:29:01;;;;;;;27.15;19.08;;;;;;;;;;5018986;28;20057;-59
2024/01/13 10:31:27;;;;;;;25.42;19.48;;;;;;;;;;5036134;28;20052;-59
2024/01/13 10:33:54;;;;;;;23.42;17.15;;;;;;;;;;5038172;28;20116;-59
2024/01/13 10:36:27;;;;;;;23.80;16.88;;;;;;;;;;5015652;28;20569;-58
2024/01/13 10:38:53;;;;;;;28.65;17.20;;;;;;;;;;5036696;28;20048;-58
2024/01/13 10:41:26;;;;;;;23.27;16.80;;;;;;;;;;5033218;28;20081;-58
2024/01/13 10:43:55;;;;;;;28.73;16.13;;;;;;;;;;5037766;28;20036;-58
2024/01/13 10:46:26;;;;;;;19.77;15.38;;;;;;;;;;5034411;28;20556;-58
2024/01/13 10:48:59;;;;;;;22.30;14.05;;;;;;;;;;5036865;28;20038;-58
2024/01/13 10:51:39;;;;;;;25.95;15.32;;;;;;;;;;5037155;28;20053;-61
2024/01/13 10:54:06;;;;;;;23.52;12.88;;;;;;;;;;5035459;28;20049;-58
2024/01/13 10:56:35;;;;;;;15.50;11.07;;;;;;;;;;5041867;28;20044;-58
2024/01/13 10:59:02;;;;;;;17.23;12.70;;;;;;;;;;5038106;28;20050;-57
2024/01/13 11:01:28;;;;;;;15.98;11.05;;;;;;;;;;5034562;28;20271;-57
2024/01/13 11:03:56;;;;;;;14.38;10.27;;;;;;;;;;5029574;28;20056;-57
2024/01/13 11:06:22;;;;;;;15.20;10.00;;;;;;;;;;5030615;28;20069;-57
2024/01/13 11:08:48;;;;;;;16.95;10.40;;;;;;;;;;5044856;28;20059;-57
2024/01/13 11:11:17;;;;;;;12.23;8.00;;;;;;;;;;5045191;28;20159;-56
2024/01/13 11:13:46;;;;;;;11.40;7.80;;;;;;;;;;5045909;28;20041;-57
2024/01/13 11:16:16;;;;;;;9.60;7.40;;;;;;;;;;5046225;28;20119;-56
2024/01/13 11:18:47;;;;;;;9.43;6.35;;;;;;;;;;5045315;28;20060;-57
2024/01/13 11:21:16;;;;;;;8.35;6.93;;;;;;;;;;5044930;28;20041;-57
2024/01/13 11:23:46;;;;;;;11.32;6.40;;;;;;;;;;5044317;28;20045;-57
2024/01/13 11:26:14;;;;;;;10.27;6.30;;;;;;;;;;5035025;28;20041;-58
2024/01/13 11:28:44;;;;;;;8.88;6.07;;;;;;;;;;5043951;28;20613;-57
2024/01/13 11:31:29;;;;;;;8.18;6.47;;;;;;;;;;5043619;28;20553;-57
2024/01/13 11:33:55;;;;;;;7.97;5.63;;;;;;;;;;5044686;28;20041;-57
2024/01/13 11:36:21;;;;;;;8.05;5.75;;;;;;;;;;5045452;28;20037;-59
2024/01/13 11:38:48;;;;;;;9.88;5.72;;;;;;;;;;5046027;28;20056;-57
2024/01/13 11:41:16;;;;;;;9.68;4.82;;;;;;;;;;5042816;28;20036;-58
2024/01/13 11:43:45;;;;;;;6.80;4.88;;;;;;;;;;5040490;28;20500;-57
2024/01/13 11:46:11;;;;;;;9.23;5.43;;;;;;;;;;5036054;28;20049;-56
2024/01/13 11:48:38;;;;;;;11.20;5.70;;;;;;;;;;5032403;28;20033;-58
2024/01/13 11:51:08;;;;;;;5.43;4.63;;;;;;;;;;5043409;28;20490;-57
2024/01/13 11:53:41;;;;;;;9.07;5.53;;;;;;;;;;5041150;28;20076;-57
2024/01/13 11:56:07;;;;;;;;;;;;;;;;;;5044870;28;20051;-57
2024/01/13 11:58:36;;;;;;;7.10;4.82;;;;;;;;;;5040391;28;19920;-56
2024/01/13 12:01:03;;;;;;;8.82;5.13;;;;;;;;;;5042531;28;20047;-57
2024/01/13 12:03:30;;;;;;;8.48;5.10;;;;;;;;;;5043782;28;20044;-57
2024/01/13 12:05:56;;;;;;;5.25;3.72;;;;;;;;;;5037516;28;20111;-57
2024/01/13 12:08:25;;;;;;;6.30;3.92;;;;;;;;;;5038554;28;20194;-57
2024/01/13 12:10:53;;;;;;;3.40;3.10;;;;;;;;;;5048625;28;20049;-56
2024/01/13 12:13:19;;;;;;;5.60;2.97;;;;;;;;;;5044131;28;20490;-57
2024/01/13 12:15:46;;;;;;;4.70;3.45;;;;;;;;;;5042545;28;20064;-57
2024/01/13 12:18:21;;;;;;;3.90;2.95;;;;;;;;;;5040431;28;20045;-57
2024/01/13 12:20:48;;;;;;;4.35;2.60;;;;;;;;;;5038386;28;20505;-57
2024/01/13 12:23:15;;;;;;;3.78;2.40;;;;;;;;;;5040707;28;20045;-57
2024/01/13 12:25:41;;;;;;;3.65;2.25;;;;;;;;;;5017898;28;20052;-57
2024/01/13 12:28:07;;;;;;;2.50;1.70;;;;;;;;;;5041008;28;20040;-57
2024/01/13 12:30:35;;;;;;;2.50;1.10;;;;;;;;;;5034349;28;20045;-56
2024/01/13 12:33:03;;;;;;;2.80;1.05;;;;;;;;;;5035938;28;20037;-56
2024/01/13 12:35:29;;;;;;;2.28;0.95;;;;;;;;;;5039872;28;20048;-56
2024/01/13 12:37:55;;;;;;;1.83;0.88;;;;;;;;;;5036543;28;20037;-56
2024/01/13 12:40:21;;;;;;;2.17;0.98;;;;;;;;;;5033622;28;20046;-57
2024/01/13 12:42:47;;;;;;;0.90;0.57;;;;;;;;;;5028710;28;20041;-56
2024/01/13 12:45:15;;;;;;;1.05;0.60;;;;;;;;;;5035534;28;20132;-56
2024/01/13 12:47:41;;;;;;;2.03;0.70;;;;;;;;;;5031045;28;20147;-56
2024/01/13 12:50:10;;;;;;;1.75;0.68;;;;;;;;;;5035611;28;20463;-56
2024/01/13 12:52:40;;;;;;;2.05;0.80;;;;;;;;;;5029179;28;20111;-56
2024/01/13 12:55:06;;;;;;;1.00;0.55;;;;;;;;;;5037895;28;20738;-56
2024/01/13 12:57:32;;;;;;;1.88;0.73;;;;;;;;;;5034866;28;20616;-56
2024/01/13 12:59:58;;;;;;;1.48;0.93;;;;;;;;;;5034880;28;20047;-56
2024/01/13 13:02:24;;;;;;;2.58;0.73;;;;;;;;;;5035366;28;20061;-56
2024/01/13 13:04:50;;;;;;;2.55;0.93;;;;;;;;;;5034772;28;20442;-56
2024/01/13 13:07:16;;;;;;;4.30;1.15;;;;;;;;;;5035283;28;20100;-56
2024/01/13 13:09:43;;;;;;;5.05;1.70;;;;;;;;;;5035337;28;20071;-56
2024/01/13 13:12:10;;;;;;;2.08;1.05;;;;;;;;;;5033889;28;20041;-57
2024/01/13 13:14:36;;;;;;;5.78;1.17;;;;;;;;;;5034513;28;20041;-56
2024/01/13 13:17:02;;;;;;;1.65;1.08;;;;;;;;;;5034415;28;20037;-56
2024/01/13 13:19:28;;;;;;;1.73;1.08;;;;;;;;;;5038319;28;20175;-57
2024/01/13 13:21:54;;;;;;;2.80;1.48;;;;;;;;;;5038861;28;20123;-56
2024/01/13 13:24:20;;;;;;;2.00;1.02;;;;;;;;;;5041042;28;20533;-57
2024/01/13 13:26:46;;;;;;;2.17;1.30;;;;;;;;;;5037737;28;20094;-56
2024/01/13 13:29:12;;;;;;;4.45;1.73;;;;;;;;;;5038902;28;20052;-56
2024/01/13 13:31:39;;;;;;;8.77;3.13;;;;;;;;;;5038448;28;20045;-57
2024/01/13 13:34:05;;;;;;;6.13;2.03;;;;;;;;;;5019425;28;20048;-56
2024/01/13 13:36:31;;;;;;;5.45;1.63;;;;;;;;;;5038039;28;20037;-56
2024/01/13 13:38:57;;;;;;;4.15;1.40;;;;;;;;;;5034960;28;20037;-57
2024/01/13 13:41:24;;;;;;;4.80;1.15;;;;;;;;;;5038339;28;20049;-56
2024/01/13 13:43:50;;;;;;;1.67;0.65;;;;;;;;;;5033546;28;20041;-57
2024/01/13 13:46:16;;;;;;;1.35;0.98;;;;;;;;;;5039173;28;20064;-56
2024/01/13 13:48:42;;;;;;;6.78;0.85;;;;;;;;;;5018595;28;20049;-57
2024/01/13 13:51:08;;;;;;;5.13;1.10;;;;;;;;;;5036047;28;20048;-56
2024/01/13 13:53:34;;;;;;;1.67;0.80;;;;;;;;;;5017355;28;20495;-56
2024/01/13 13:56:01;;;;;;;5.93;1.25;;;;;;;;;;5033437;28;20431;-58
2024/01/13 13:58:26;;;;;;;3.15;1.00;;;;;;;;;;5036806;28;20038;-56
2024/01/13 14:00:52;;;;;;;3.03;0.90;;;;;;;;;;5036479;28;20048;-56
2024/01/13 14:03:19;;;;;;;3.47;1.00;;;;;;;;;;5042318;28;20146;-57
2024/01/13 14:05:45;;;;;;;4.53;0.85;;;;;;;;;;5035423;28;20041;-56
2024/01/13 14:08:12;;;;;;;4.90;1.45;;;;;;;;;;5037420;28;20034;-56
2024/01/13 14:10:38;;;;;;;5.88;1.85;;;;;;;;;;5034942;28;20052;-56
2024/01/13 14:13:04;;;;;;;4.53;1.15;;;;;;;;;;5039333;28;20072;-56
2024/01/13 14:15:30;;;;;;;5.70;1.38;;;;;;;;;;5035128;28;20052;-57
2024/01/13 14:17:57;;;;;;;1.80;0.70;;;;;;;;;;5039437;28;20565;-54
2024/01/13 14:20:23;;;;;;;1.77;0.98;;;;;;;;;;5019508;28;20055;-56
2024/01/13 14:22:50;;;;;;;2.28;1.17;;;;;;;;;;5040308;28;20060;-58
2024/01/13 14:25:16;;;;;;;3.25;1.08;;;;;;;;;;5040973;28;20056;-57
2024/01/13 14:27:42;;;;;;;4.20;1.17;;;;;;;;;;5038497;28;20132;-57
2024/01/13 14:30:08;;;;;;;1.88;0.90;;;;;;;;;;5040727;28;20033;-57
2024/01/13 14:32:34;;;;;;;3.95;1.02;;;;;;;;;;5020981;28;20095;-57
2024/01/13 14:35:02;;;;;;;3.50;0.85;;;;;;;;;;5032386;28;20210;-56